sensor_id;sensor_type;location;lat;lon;timestamp;pressure;altitude;pressure_sealevel;temperature;humidity
70815;BME280;58428;49.478;10.986;2023-11-21T00:17:04;97894.00;;;9.16;100.00
70815;BME280;58428;49.478;10.986;2023-11-21T00:19:32;97894.22;;;9.23;100.00
70815;BME280;58428;49.478;10.986;2023-11-21T00:22:00;97902.66;;;9.01;100.00
70815;BME280;58428;49.478;10.986;2023-11-21T00:24:25;97899.03;;;8.97;100.00
70815;BME280;58428;49.478;10.986;2023-11-21T00:26:51;97895.22;;;8.98;100.00
70815;BME280;58428;49.478;10.986;2023-11-21T00:29:21;97894.63;;;8.93;100.00
70815;BME280;58428;49.478;10.986;2023-11-21T00:31:47;97887.78;;;8.95;100.00
70815;BME280;58428;49.478;10.986;2023-11-21T00:34:13;97894.25;;;9.03;100.00
70815;BME280;58428;49.478;10.986;2023-11-21T00:36:39;97886.75;;;9.08;100.00
70815;BME280;58428;49.478;10.986;2023-11-21T00:39:06;97888.44;;;9.13;100.00
70815;BME280;58428;49.478;10.986;2023-11-21T00:41:36;97893.56;;;9.06;100.00
70815;BME280;58428;49.478;10.986;2023-11-21T00:44:01;97893.38;;;9.11;100.00
70815;BME280;58428;49.478;10.986;2023-11-21T00:46:27;97891.53;;;9.03;100.00
70815;BME280;58428;49.478;10.986;2023-11-21T00:48:55;97894.25;;;9.03;100.00
70815;BME280;58428;49.478;10.986;2023-11-21T00:51:23;97891.69;;;9.06;100.00
70815;BME280;58428;49.478;10.986;2023-11-21T00:53:53;97891.75;;;9.18;100.00
70815;BME280;58428;49.478;10.986;2023-11-21T00:56:23;97891.34;;;9.28;100.00
70815;BME280;58428;49.478;10.986;2023-11-21T00:58:49;97894.91;;;9.20;100.00
70815;BME280;58428;49.478;10.986;2023-11-21T01:01:18;97896.88;;;9.11;100.00
70815;BME280;58428;49.478;10.986;2023-11-21T01:03:46;97902.66;;;9.01;100.00
70815;BME280;58428;49.478;10.986;2023-11-21T01:06:14;97895.81;;;9.04;100.00
70815;BME280;58428;49.478;10.986;2023-11-21T01:08:40;97901.19;;;9.04;100.00
70815;BME280;58428;49.478;10.986;2023-11-21T01:11:05;97902.97;;;9.00;100.00
70815;BME280;58428;49.478;10.986;2023-11-21T01:13:34;97898.31;;;8.88;100.00
70815;BME280;58428;49.478;10.986;2023-11-21T01:16:03;97902.25;;;8.91;100.00
70815;BME280;58428;49.478;10.986;2023-11-21T01:18:29;97890.75;;;9.02;100.00
70815;BME280;58428;49.478;10.986;2023-11-21T01:20:54;97898.47;;;9.12;100.00
70815;BME280;58428;49.478;10.986;2023-11-21T01:23:21;97898.72;;;9.19;100.00
70815;BME280;58428;49.478;10.986;2023-11-21T01:25:47;97896.94;;;9.03;100.00
70815;BME280;58428;49.478;10.986;2023-11-21T01:28:12;97903.78;;;9.00;100.00
70815;BME280;58428;49.478;10.986;2023-11-21T01:30:38;97907.88;;;9.06;100.00
70815;BME280;58428;49.478;10.986;2023-11-21T01:33:04;97897.00;;;9.15;100.00
70815;BME280;58428;49.478;10.986;2023-11-21T01:35:29;97897.59;;;9.20;100.00
70815;BME280;58428;49.478;10.986;2023-11-21T01:37:56;97905.84;;;9.23;100.00
70815;BME280;58428;49.478;10.986;2023-11-21T01:40:21;97900.16;;;9.17;100.00
70815;BME280;58428;49.478;10.986;2023-11-21T01:42:47;97896.88;;;9.11;100.00
70815;BME280;58428;49.478;10.986;2023-11-21T01:45:13;97890.28;;;9.00;100.00
70815;BME280;58428;49.478;10.986;2023-11-21T01:47:40;97890.63;;;8.99;100.00
70815;BME280;58428;49.478;10.986;2023-11-21T01:50:08;97888.69;;;8.99;100.00
70815;BME280;58428;49.478;10.986;2023-11-21T01:52:38;97892.06;;;8.96;100.00
70815;BME280;58428;49.478;10.986;2023-11-21T01:55:06;97889.16;;;9.01;100.00
70815;BME280;58428;49.478;10.986;2023-11-21T01:57:33;97880.69;;;9.11;100.00
70815;BME280;58428;49.478;10.986;2023-11-21T02:00:01;97878.72;;;9.20;100.00
70815;BME280;58428;49.478;10.986;2023-11-21T02:02:36;97881.88;;;9.22;100.00
70815;BME280;58428;49.478;10.986;2023-11-21T02:05:04;97886.94;;;9.23;100.00
70815;BME280;58428;49.478;10.986;2023-11-21T02:07:30;97884.75;;;9.17;100.00
70815;BME280;58428;49.478;10.986;2023-11-21T02:09:57;97887.53;;;9.09;100.00
70815;BME280;58428;49.478;10.986;2023-11-21T02:12:23;97881.22;;;9.05;100.00
70815;BME280;58428;49.478;10.986;2023-11-21T02:14:51;97886.69;;;8.96;100.00
70815;BME280;58428;49.478;10.986;2023-11-21T02:17:17;97879.53;;;8.92;100.00
70815;BME280;58428;49.478;10.986;2023-11-21T02:19:43;97870.81;;;8.95;100.00
70815;BME280;58428;49.478;10.986;2023-11-21T02:22:10;97879.22;;;8.93;100.00
70815;BME280;58428;49.478;10.986;2023-11-21T02:24:40;97878.59;;;8.96;100.00
70815;BME280;58428;49.478;10.986;2023-11-21T02:27:07;97876.59;;;9.05;100.00
70815;BME280;58428;49.478;10.986;2023-11-21T02:29:34;97875.28;;;9.11;100.00
70815;BME280;58428;49.478;10.986;2023-11-21T02:32:00;97881.34;;;9.08;100.00
70815;BME280;58428;49.478;10.986;2023-11-21T02:34:26;97874.03;;;9.09;100.00
70815;BME280;58428;49.478;10.986;2023-11-21T02:36:51;97873.97;;;9.17;100.00
70815;BME280;58428;49.478;10.986;2023-11-21T02:39:17;97876.16;;;9.23;100.00
70815;BME280;58428;49.478;10.986;2023-11-21T02:41:43;97873.97;;;9.17;100.00
70815;BME280;58428;49.478;10.986;2023-11-21T02:44:09;97868.78;;;9.12;100.00
70815;BME280;58428;49.478;10.986;2023-11-21T02:46:37;97867.84;;;9.08;100.00
70815;BME280;58428;49.478;10.986;2023-11-21T02:49:05;97869.50;;;9.01;100.00
70815;BME280;58428;49.478;10.986;2023-11-21T02:51:38;97862.03;;;8.98;100.00
70815;BME280;58428;49.478;10.986;2023-11-21T02:54:05;97866.47;;;9.02;100.00
70815;BME280;58428;49.478;10.986;2023-11-21T02:56:36;97860.88;;;9.07;100.00
70815;BME280;58428;49.478;10.986;2023-11-21T02:59:02;97871.53;;;9.04;100.00
70815;BME280;58428;49.478;10.986;2023-11-21T03:01:28;97859.44;;;9.10;100.00
70815;BME280;58428;49.478;10.986;2023-11-21T03:03:53;97867.25;;;9.03;100.00
70815;BME280;58428;49.478;10.986;2023-11-21T03:06:23;97857.72;;;9.05;100.00
70815;BME280;58428;49.478;10.986;2023-11-21T03:08:49;97860.16;;;8.98;100.00
70815;BME280;58428;49.478;10.986;2023-11-21T03:11:14;97866.88;;;8.92;100.00
70815;BME280;58428;49.478;10.986;2023-11-21T03:13:42;97863.25;;;8.88;100.00
70815;BME280;58428;49.478;10.986;2023-11-21T03:16:11;97870.81;;;8.95;100.00
70815;BME280;58428;49.478;10.986;2023-11-21T03:18:38;97866.19;;;8.95;100.00
70815;BME280;58428;49.478;10.986;2023-11-21T03:21:08;97871.41;;;9.00;100.00
70815;BME280;58428;49.478;10.986;2023-11-21T03:23:35;97866.59;;;9.06;100.00
70815;BME280;58428;49.478;10.986;2023-11-21T03:26:01;97867.66;;;9.13;100.00
70815;BME280;58428;49.478;10.986;2023-11-21T03:28:28;97868.25;;;9.18;100.00
70815;BME280;58428;49.478;10.986;2023-11-21T03:30:53;97867.47;;;9.18;100.00
70815;BME280;58428;49.478;10.986;2023-11-21T03:33:21;97876.56;;;9.14;100.00
70815;BME280;58428;49.478;10.986;2023-11-21T03:35:47;97877.25;;;9.22;100.00
70815;BME280;58428;49.478;10.986;2023-11-21T03:38:14;97874.69;;;9.26;100.00
70815;BME280;58428;49.478;10.986;2023-11-21T03:40:39;97870.28;;;9.21;100.00
70815;BME280;58428;49.478;10.986;2023-11-21T03:43:05;97865.94;;;9.09;100.00
70815;BME280;58428;49.478;10.986;2023-11-21T03:45:31;97870.41;;;9.05;100.00
70815;BME280;58428;49.478;10.986;2023-11-21T03:47:57;97878.69;;;9.00;100.00
70815;BME280;58428;49.478;10.986;2023-11-21T03:50:22;97876.78;;;8.80;100.00
70815;BME280;58428;49.478;10.986;2023-11-21T03:52:47;97871.38;;;8.80;100.00
70815;BME280;58428;49.478;10.986;2023-11-21T03:55:13;97870.53;;;8.88;100.00
70815;BME280;58428;49.478;10.986;2023-11-21T03:57:40;97878.69;;;9.00;100.00
70815;BME280;58428;49.478;10.986;2023-11-21T04:00:11;97883.13;;;9.04;100.00
70815;BME280;58428;49.478;10.986;2023-11-21T04:02:41;97875.28;;;8.91;100.00
70815;BME280;58428;49.478;10.986;2023-11-21T04:05:06;97892.78;;;8.85;100.00
70815;BME280;58428;49.478;10.986;2023-11-21T04:07:35;97891.84;;;8.81;100.00
70815;BME280;58428;49.478;10.986;2023-11-21T04:10:05;97891.16;;;8.92;100.00
70815;BME280;58428;49.478;10.986;2023-11-21T04:12:33;97890.63;;;8.99;100.00
70815;BME280;58428;49.478;10.986;2023-11-21T04:14:59;97880.88;;;9.06;100.00
70815;BME280;58428;49.478;10.986;2023-11-21T04:17:24;97888.44;;;9.13;100.00
70815;BME280;58428;49.478;10.986;2023-11-21T04:23:33;97879.91;;;8.90;100.00
70815;BME280;58428;49.478;10.986;2023-11-21T04:25:59;97882.00;;;8.85;100.00
70815;BME280;58428;49.478;10.986;2023-11-21T04:28:25;97885.28;;;8.90;100.00
70815;BME280;58428;49.478;10.986;2023-11-21T04:30:51;97886.53;;;8.93;100.00
70815;BME280;58428;49.478;10.986;2023-11-21T04:33:18;97890.78;;;8.94;100.00
70815;BME280;58428;49.478;10.986;2023-11-21T04:35:43;97880.28;;;9.01;100.00
70815;BME280;58428;49.478;10.986;2023-11-21T04:38:08;97889.63;;;9.03;100.00
70815;BME280;58428;49.478;10.986;2023-11-21T04:40:34;97892.09;;;8.88;100.00
70815;BME280;58428;49.478;10.986;2023-11-21T04:43:02;97890.13;;;8.77;100.00
70815;BME280;58428;49.478;10.986;2023-11-21T04:45:29;97889.78;;;8.78;100.00
70815;BME280;58428;49.478;10.986;2023-11-21T04:47:55;97888.09;;;8.74;100.00
70815;BME280;58428;49.478;10.986;2023-11-21T04:50:20;97894.19;;;8.82;100.00
70815;BME280;58428;49.478;10.986;2023-11-21T04:52:46;97899.41;;;8.87;100.00
70815;BME280;58428;49.478;10.986;2023-11-21T04:55:11;97901.66;;;8.85;100.00
70815;BME280;58428;49.478;10.986;2023-11-21T04:57:37;97901.47;;;8.90;100.00
70815;BME280;58428;49.478;10.986;2023-11-21T05:00:03;97902.19;;;8.99;100.00
70815;BME280;58428;49.478;10.986;2023-11-21T05:02:32;97899.63;;;9.03;100.00
70815;BME280;58428;49.478;10.986;2023-11-21T05:05:03;97898.66;;;9.07;100.00
70815;BME280;58428;49.478;10.986;2023-11-21T05:07:31;97900.03;;;9.13;100.00
70815;BME280;58428;49.478;10.986;2023-11-21T05:09:57;97897.53;;;9.08;100.00
70815;BME280;58428;49.478;10.986;2023-11-21T05:12:24;97903.19;;;9.15;100.00
70815;BME280;58428;49.478;10.986;2023-11-21T05:14:50;97898.91;;;9.14;100.00
70815;BME280;58428;49.478;10.986;2023-11-21T05:17:18;97901.63;;;9.14;100.00
70815;BME280;58428;49.478;10.986;2023-11-21T05:19:44;97900.28;;;9.00;100.00
70815;BME280;58428;49.478;10.986;2023-11-21T05:22:13;97904.72;;;9.04;100.00
70815;BME280;58428;49.478;10.986;2023-11-21T05:24:38;97909.66;;;9.02;100.00
70815;BME280;58428;49.478;10.986;2023-11-21T05:27:07;97910.81;;;8.93;100.00
70815;BME280;58428;49.478;10.986;2023-11-21T05:29:34;97917.19;;;8.88;100.00
70815;BME280;58428;49.478;10.986;2023-11-21T05:32:01;97923.31;;;8.97;100.00
70815;BME280;58428;49.478;10.986;2023-11-21T05:34:27;97930.69;;;9.09;100.00
70815;BME280;58428;49.478;10.986;2023-11-21T05:36:52;97925.59;;;9.16;100.00
70815;BME280;58428;49.478;10.986;2023-11-21T05:39:18;97934.56;;;8.99;100.00
70815;BME280;58428;49.478;10.986;2023-11-21T05:41:44;97930.25;;;9.07;100.00
70815;BME280;58428;49.478;10.986;2023-11-21T05:44:10;97929.91;;;9.08;100.00
70815;BME280;58428;49.478;10.986;2023-11-21T05:46:42;97934.59;;;9.19;100.00
70815;BME280;58428;49.478;10.986;2023-11-21T05:49:09;97938.88;;;9.20;100.00
70815;BME280;58428;49.478;10.986;2023-11-21T05:51:36;97941.72;;;9.24;100.00
70815;BME280;58428;49.478;10.986;2023-11-21T05:54:02;97939.19;;;9.19;100.00
70815;BME280;58428;49.478;10.986;2023-11-21T05:56:27;97931.69;;;9.24;100.00
70815;BME280;58428;49.478;10.986;2023-11-21T05:58:52;97940.31;;;9.18;100.00
70815;BME280;58428;49.478;10.986;2023-11-21T06:01:19;97940.19;;;9.15;100.00
70815;BME280;58428;49.478;10.986;2023-11-21T06:03:45;97943.81;;;9.18;100.00
70815;BME280;58428;49.478;10.986;2023-11-21T06:06:11;97944.50;;;9.07;100.00
70815;BME280;58428;49.478;10.986;2023-11-21T06:08:37;97952.34;;;9.00;100.00
70815;BME280;58428;49.478;10.986;2023-11-21T06:11:03;97947.91;;;8.96;100.00
70815;BME280;58428;49.478;10.986;2023-11-21T06:13:31;97944.56;;;8.99;100.00
70815;BME280;58428;49.478;10.986;2023-11-21T06:15:56;97951.75;;;8.95;100.00
70815;BME280;58428;49.478;10.986;2023-11-21T06:18:22;97950.34;;;8.89;100.00
70815;BME280;58428;49.478;10.986;2023-11-21T06:23:50;97950.16;;;8.94;100.00
70815;BME280;58428;49.478;10.986;2023-11-21T06:26:24;97958.06;;;8.99;100.00
70815;BME280;58428;49.478;10.986;2023-11-21T06:28:53;97952.38;;;8.92;100.00
70815;BME280;58428;49.478;10.986;2023-11-21T06:31:19;97960.31;;;8.97;100.00
70815;BME280;58428;49.478;10.986;2023-11-21T06:33:45;97960.16;;;8.93;100.00
70815;BME280;58428;49.478;10.986;2023-11-21T06:36:10;97965.56;;;8.93;100.00
70815;BME280;58428;49.478;10.986;2023-11-21T06:38:37;97965.84;;;9.00;100.00
70815;BME280;58428;49.478;10.986;2023-11-21T06:41:04;97965.69;;;8.97;100.00
70815;BME280;58428;49.478;10.986;2023-11-21T06:43:32;97968.72;;;8.95;100.00
70815;BME280;58428;49.478;10.986;2023-11-21T06:45:58;97968.34;;;9.05;100.00
70815;BME280;58428;49.478;10.986;2023-11-21T06:48:23;97975.72;;;9.17;100.00
70815;BME280;58428;49.478;10.986;2023-11-21T06:50:52;97985.69;;;9.24;100.00
70815;BME280;58428;49.478;10.986;2023-11-21T06:53:22;97980.75;;;9.26;100.00
70815;BME280;58428;49.478;10.986;2023-11-21T06:55:50;97992.59;;;9.34;100.00
70815;BME280;58428;49.478;10.986;2023-11-21T06:58:32;97986.88;;;9.35;100.00
70815;BME280;58428;49.478;10.986;2023-11-21T07:01:04;97992.75;;;9.37;100.00
70815;BME280;58428;49.478;10.986;2023-11-21T07:04:01;98000.31;;;9.23;100.00
70815;BME280;58428;49.478;10.986;2023-11-21T07:06:35;98010.66;;;9.13;100.00
70815;BME280;58428;49.478;10.986;2023-11-21T07:09:02;98009.03;;;9.20;100.00
70815;BME280;58428;49.478;10.986;2023-11-21T07:11:37;98015.66;;;9.03;100.00
70815;BME280;58428;49.478;10.986;2023-11-21T07:14:31;98020.75;;;8.96;100.00
70815;BME280;58428;49.478;10.986;2023-11-21T07:17:23;98026.13;;;9.04;100.00
70815;BME280;58428;49.478;10.986;2023-11-21T07:19:55;98029.94;;;9.03;100.00
70815;BME280;58428;49.478;10.986;2023-11-21T07:22:29;98024.06;;;9.01;100.00
70815;BME280;58428;49.478;10.986;2023-11-21T07:25:03;98041.50;;;9.04;100.00
70815;BME280;58428;49.478;10.986;2023-11-21T07:28:00;98043.16;;;8.96;100.00
70815;BME280;58428;49.478;10.986;2023-11-21T07:30:48;98039.16;;;9.02;100.00
70815;BME280;58428;49.478;10.986;2023-11-21T07:33:40;98044.34;;;9.07;100.00
70815;BME280;58428;49.478;10.986;2023-11-21T07:36:09;98047.03;;;9.16;100.00
70815;BME280;58428;49.478;10.986;2023-11-21T07:38:47;98043.66;;;9.18;100.00
70815;BME280;58428;49.478;10.986;2023-11-21T07:41:18;98043.59;;;9.35;100.00
70815;BME280;58428;49.478;10.986;2023-11-21T07:44:00;98049.78;;;9.56;100.00
70815;BME280;58428;49.478;10.986;2023-11-21T07:46:30;98047.66;;;9.70;100.00
70815;BME280;58428;49.478;10.986;2023-11-21T07:49:03;98046.50;;;9.71;100.00
70815;BME280;58428;49.478;10.986;2023-11-21T07:51:48;98052.19;;;9.78;100.00
70815;BME280;58428;49.478;10.986;2023-11-21T07:57:20;98050.25;;;9.58;100.00
70815;BME280;58428;49.478;10.986;2023-11-21T07:59:52;98058.16;;;9.63;100.00
70815;BME280;58428;49.478;10.986;2023-11-21T08:05:12;98050.13;;;9.75;100.00
70815;BME280;58428;49.478;10.986;2023-11-21T08:07:48;98056.41;;;9.67;100.00
70815;BME280;58428;49.478;10.986;2023-11-21T08:10:16;98051.78;;;9.67;100.00
70815;BME280;58428;49.478;10.986;2023-11-21T08:12:45;98064.19;;;9.68;100.00
70815;BME280;58428;49.478;10.986;2023-11-21T08:15:22;98059.16;;;9.58;100.00
70815;BME280;58428;49.478;10.986;2023-11-21T08:17:54;98063.22;;;9.44;100.00
70815;BME280;58428;49.478;10.986;2023-11-21T08:20:24;98073.00;;;9.57;100.00
70815;BME280;58428;49.478;10.986;2023-11-21T08:23:02;98063.41;;;9.68;100.00
70815;BME280;58428;49.478;10.986;2023-11-21T08:25:35;98063.00;;;9.78;100.00
70815;BME280;58428;49.478;10.986;2023-11-21T08:28:00;98061.16;;;9.90;100.00
70815;BME280;58428;49.478;10.986;2023-11-21T08:30:45;98054.63;;;9.71;100.00
70815;BME280;58428;49.478;10.986;2023-11-21T08:33:22;98061.63;;;9.72;100.00
70815;BME280;58428;49.478;10.986;2023-11-21T08:36:09;98061.38;;;9.85;100.00
70815;BME280;58428;49.478;10.986;2023-11-21T08:38:37;98059.31;;;10.02;100.00
70815;BME280;58428;49.478;10.986;2023-11-21T08:41:09;98060.44;;;10.22;100.00
70815;BME280;58428;49.478;10.986;2023-11-21T08:43:40;98066.44;;;10.27;100.00
70815;BME280;58428;49.478;10.986;2023-11-21T08:46:16;98070.22;;;10.14;100.00
70815;BME280;58428;49.478;10.986;2023-11-21T08:48:51;98067.31;;;9.99;100.00
70815;BME280;58428;49.478;10.986;2023-11-21T08:51:18;98070.53;;;10.13;100.00
70815;BME280;58428;49.478;10.986;2023-11-21T08:53:46;98074.81;;;10.14;100.00
70815;BME280;58428;49.478;10.986;2023-11-21T08:56:14;98088.03;;;9.87;100.00
70815;BME280;58428;49.478;10.986;2023-11-21T08:58:49;98085.56;;;10.22;100.00
70815;BME280;58428;49.478;10.986;2023-11-21T09:01:16;98084.56;;;10.27;100.00
70815;BME280;58428;49.478;10.986;2023-11-21T09:03:43;98086.81;;;10.25;100.00
70815;BME280;58428;49.478;10.986;2023-11-21T09:06:12;98095.00;;;10.16;100.00
70815;BME280;58428;49.478;10.986;2023-11-21T09:08:39;98093.28;;;10.32;100.00
70815;BME280;58428;49.478;10.986;2023-11-21T09:11:12;98089.97;;;10.59;100.00
70815;BME280;58428;49.478;10.986;2023-11-21T09:13:41;98093.66;;;10.74;100.00
70815;BME280;58428;49.478;10.986;2023-11-21T09:16:07;98100.00;;;10.90;100.00
70815;BME280;58428;49.478;10.986;2023-11-21T09:18:36;98097.69;;;10.68;100.00
70815;BME280;58428;49.478;10.986;2023-11-21T09:21:04;98112.16;;;10.52;100.00
70815;BME280;58428;49.478;10.986;2023-11-21T09:23:36;98108.06;;;10.66;100.00
70815;BME280;58428;49.478;10.986;2023-11-21T09:26:03;98110.84;;;10.58;100.00
70815;BME280;58428;49.478;10.986;2023-11-21T09:28:58;98118.50;;;10.88;100.00
70815;BME280;58428;49.478;10.986;2023-11-21T09:31:26;98119.63;;;10.99;100.00
70815;BME280;58428;49.478;10.986;2023-11-21T09:33:52;98114.19;;;10.87;100.00
70815;BME280;58428;49.478;10.986;2023-11-21T09:36:23;98117.06;;;11.02;100.00
70815;BME280;58428;49.478;10.986;2023-11-21T09:38:53;98116.94;;;10.99;100.00
70815;BME280;58428;49.478;10.986;2023-11-21T09:44:31;98118.41;;;10.97;100.00
70815;BME280;58428;49.478;10.986;2023-11-21T09:47:02;98111.31;;;11.04;100.00
70815;BME280;58428;49.478;10.986;2023-11-21T09:49:33;98109.16;;;10.98;100.00
70815;BME280;58428;49.478;10.986;2023-11-21T09:54:52;98122.09;;;10.80;100.00
70815;BME280;58428;49.478;10.986;2023-11-21T09:57:33;98120.50;;;10.79;100.00
70815;BME280;58428;49.478;10.986;2023-11-21T10:00:01;98115.53;;;10.81;100.00
70815;BME280;58428;49.478;10.986;2023-11-21T10:02:42;98117.38;;;11.01;100.00
70815;BME280;58428;49.478;10.986;2023-11-21T10:05:07;98112.00;;;11.13;100.00
70815;BME280;58428;49.478;10.986;2023-11-21T10:07:37;98115.72;;;11.08;100.00
70815;BME280;58428;49.478;10.986;2023-11-21T10:10:05;98118.25;;;10.93;100.00
70815;BME280;58428;49.478;10.986;2023-11-21T11:43:26;98138.75;;;11.26;100.00
70815;BME280;58428;49.478;10.986;2023-11-21T11:46:11;98127.13;;;11.26;100.00
70815;BME280;58428;49.478;10.986;2023-11-21T11:48:41;98127.16;;;11.38;100.00
70815;BME280;58428;49.478;10.986;2023-11-21T11:51:14;98129.53;;;11.39;100.00
70815;BME280;58428;49.478;10.986;2023-11-21T11:53:52;98124.91;;;11.51;100.00
70815;BME280;58428;49.478;10.986;2023-11-21T11:56:23;98133.13;;;11.43;100.00
70815;BME280;58428;49.478;10.986;2023-11-21T11:58:58;98137.78;;;11.42;100.00
70815;BME280;58428;49.478;10.986;2023-11-21T12:01:29;98143.63;;;11.33;100.00
70815;BME280;58428;49.478;10.986;2023-11-21T15:08:28;98241.16;;;10.40;100.00
70815;BME280;58428;49.478;10.986;2023-11-21T15:11:00;98248.94;;;10.41;100.00
70815;BME280;58428;49.478;10.986;2023-11-21T15:14:00;98251.34;;;10.34;100.00
70815;BME280;58428;49.478;10.986;2023-11-21T15:16:26;98257.88;;;10.33;100.00
70815;BME280;58428;49.478;10.986;2023-11-21T15:18:57;98257.41;;;10.31;100.00
70815;BME280;58428;49.478;10.986;2023-11-21T15:21:32;98259.53;;;10.26;100.00
70815;BME280;58428;49.478;10.986;2023-11-21T15:24:07;98258.13;;;10.20;100.00
70815;BME280;58428;49.478;10.986;2023-11-21T16:54:21;98362.88;;;9.78;100.00
70815;BME280;58428;49.478;10.986;2023-11-21T16:56:47;98369.09;;;9.61;100.00
70815;BME280;58428;49.478;10.986;2023-11-21T16:59:12;98377.03;;;9.66;100.00
70815;BME280;58428;49.478;10.986;2023-11-21T17:01:39;98370.84;;;9.57;100.00
70815;BME280;58428;49.478;10.986;2023-11-21T17:04:04;98375.94;;;9.59;100.00
70815;BME280;58428;49.478;10.986;2023-11-21T18:37:26;98467.28;;;9.57;100.00
70815;BME280;58428;49.478;10.986;2023-11-21T18:39:54;98475.88;;;9.59;100.00
70815;BME280;58428;49.478;10.986;2023-11-21T18:42:41;98475.09;;;9.58;100.00
70815;BME280;58428;49.478;10.986;2023-11-21T18:45:14;98484.13;;;9.46;100.00
70815;BME280;58428;49.478;10.986;2023-11-21T18:47:53;98483.00;;;9.38;100.00
70815;BME280;58428;49.478;10.986;2023-11-21T18:56:00;98498.38;;;9.13;100.00
70815;BME280;58428;49.478;10.986;2023-11-21T18:58:25;98509.63;;;9.06;100.00
70815;BME280;58428;49.478;10.986;2023-11-21T19:00:55;98503.75;;;9.04;100.00
70815;BME280;58428;49.478;10.986;2023-11-21T19:03:43;98511.50;;;9.06;100.00
70815;BME280;58428;49.478;10.986;2023-11-21T19:06:13;98518.22;;;9.08;100.00
70815;BME280;58428;49.478;10.986;2023-11-21T19:08:41;98516.97;;;9.14;100.00
70815;BME280;58428;49.478;10.986;2023-11-21T19:11:13;98520.59;;;9.10;100.00
70815;BME280;58428;49.478;10.986;2023-11-21T19:13:39;98516.44;;;9.04;100.00
70815;BME280;58428;49.478;10.986;2023-11-21T19:16:04;98523.25;;;8.93;100.00
70815;BME280;58428;49.478;10.986;2023-11-21T19:22:08;98528.66;;;9.01;100.00
70815;BME280;58428;49.478;10.986;2023-11-21T19:24:42;98531.53;;;9.05;100.00
70815;BME280;58428;49.478;10.986;2023-11-21T19:27:26;98531.53;;;9.05;100.00
70815;BME280;58428;49.478;10.986;2023-11-21T19:30:32;98543.47;;;9.12;100.00
70815;BME280;58428;49.478;10.986;2023-11-21T19:33:24;98546.19;;;9.20;100.00
70815;BME280;58428;49.478;10.986;2023-11-21T19:36:09;98542.69;;;9.20;100.00
70815;BME280;58428;49.478;10.986;2023-11-21T21:13:36;98695.50;;;7.59;100.00
70815;BME280;58428;49.478;10.986;2023-11-21T21:19:24;98696.56;;;7.58;100.00
70815;BME280;58428;49.478;10.986;2023-11-21T21:22:17;98714.72;;;7.53;100.00
70815;BME280;58428;49.478;10.986;2023-11-21T21:24:46;98712.63;;;7.50;100.00
70815;BME280;58428;49.478;10.986;2023-11-21T21:27:47;98718.31;;;7.62;100.00
70815;BME280;58428;49.478;10.986;2023-11-21T21:30:30;98707.63;;;7.57;100.00
70815;BME280;58428;49.478;10.986;2023-11-21T21:32:55;98719.72;;;7.59;100.00
70815;BME280;58428;49.478;10.986;2023-11-21T21:35:25;98724.69;;;7.66;100.00
70815;BME280;58428;49.478;10.986;2023-11-21T21:38:15;98727.09;;;7.54;100.00
70815;BME280;58428;49.478;10.986;2023-11-21T21:44:20;98723.69;;;7.48;100.00
70815;BME280;58428;49.478;10.986;2023-11-21T21:46:58;98732.97;;;7.42;100.00
70815;BME280;58428;49.478;10.986;2023-11-21T21:49:24;98733.94;;;7.33;100.00
70815;BME280;58428;49.478;10.986;2023-11-21T21:51:53;98742.72;;;7.38;100.00
70815;BME280;58428;49.478;10.986;2023-11-21T21:54:35;98750.59;;;7.35;100.00
70815;BME280;58428;49.478;10.986;2023-11-21T21:57:09;98751.09;;;7.37;100.00
70815;BME280;58428;49.478;10.986;2023-11-21T21:59:41;98754.50;;;7.42;100.00
70815;BME280;58428;49.478;10.986;2023-11-21T22:02:19;98762.44;;;7.21;100.00
70815;BME280;58428;49.478;10.986;2023-11-21T22:04:51;98759.31;;;7.14;100.00
70815;BME280;58428;49.478;10.986;2023-11-21T22:14:12;98767.69;;;6.81;100.00
70815;BME280;58428;49.478;10.986;2023-11-21T23:47:27;98833.47;;;5.87;100.00
